WMKM/MKZ METAR and TAF weather

Enter ICAO airport designator
Station Type Date Time Source
WMKM METAR 2022/06/26 07:00 UTC NOAA

WMKM 260700Z 16007G22KT 110V250 9999 FEW017CB 31/25 Q1008


Station Type Date Time Source
WMKM Decoded METAR 2022/06/26 07:00 UTC NOAA

Malacca, Malaysia (WMKM) 02-16N 102-15E 9M
Jun 26, 2022 - 03:00 AM EDT / 2022.06.26 0700 UTC
Wind: from the SSE (160 degrees) at 8 MPH (7 KT) gusting to 25 MPH (22 KT) (direction variable):0
Visibility: greater than 7 mile(s):0
Sky conditions: mostly clear
Weather: Cumulonimbus clouds observed
Temperature: 87 F (31 C)
Heat index: 97.5 F (36.4 C):1
Dew Point: 77 F (25 C)
Relative Humidity: 70%
Pressure (altimeter): 29.77 in. Hg (1008 hPa)
ob: WMKM 260700Z 16007G22KT 110V250 9999 FEW017CB 31/25 Q1008
cycle: 7

Station Type Date Time Source
WMKM TAF 2022/06/26 06:00 UTC NOAA

TAF WMKM 260500Z 2606/2706 16006KT 9999 FEW018
TEMPO 2622/2702 4000 TSRA FEW010 FEW017CB SCT022

Example: see airport list